Wind from 270 at 19 knots gusting 30

Air temperature 3.0° C
Visibility: greater than 5.4 NM
Dewpoint -0.0° C
Present weather: Showers in the vicinity.

Last reported at 2014-Apr-19 22:50 UTC.
Time now 2014-Apr-20 00:46 UTC

Location: N 69°18' E 016°09'.
View on Google Maps.

See reports from other nearby stations

Tides Stations Pressure Air Temp Water Temp Dewpoint Dewpoint depression Visibility Wind Speed Wind Dir Waves Ship positions

  
sailing weather and tide predictions

ANDOYA weather

date/time (UTC)wind fromknots sea level pressurealtimeterstation pressurevisibilityair tempwater tempwave heightnotes
2014-Apr-19 22:50 270 19 gusting 30 5.4 3.0 Showers in the vicinity.
2014-Apr-19 21:50 250 26 gusting 45 5.4 4.0 Showers in the vicinity.
2014-Apr-19 20:50 250 32 gusting 42 5.4 3.0 Light rain showers.
2014-Apr-19 19:50 250 35 gusting 51 5.4 4.0
2014-Apr-19 18:50 260 30 gusting 49 5.4 4.0 Showers in the vicinity.
2014-Apr-19 17:50 250 29 gusting 55 5.4 5.0 Light rain showers.
2014-Apr-19 16:50 260 34 gusting 56 5.4 5.0 Light rain showers.
2014-Apr-19 16:20 250 25 gusting 42 5.4 5.0 Showers in the vicinity.
2014-Apr-19 15:50 250 25 gusting 40 5.4 5.0 Showers in the vicinity.
2014-Apr-19 15:20 240 30 gusting 49 5.4 4.0 Light rain showers.
2014-Apr-19 14:50 240 23 gusting 46 5.4 6.0 Showers in the vicinity.
2014-Apr-19 14:20 240 24 gusting 40 5.4 5.0
2014-Apr-19 13:50 240 24 gusting 49 5.4 6.0 Showers in the vicinity.
2014-Apr-19 13:20 240 22 gusting 40 5.4 6.0 Showers in the vicinity.
2014-Apr-19 12:50 250 25 gusting 39 5.4 6.0 Showers in the vicinity.
2014-Apr-19 12:20 240 24 gusting 42 5.4 6.0 Showers in the vicinity.
2014-Apr-19 11:50 240 20 gusting 33 5.4 6.0 Showers in the vicinity.
2014-Apr-19 11:20 240 18 gusting 33 5.4 5.0 Showers in the vicinity.
2014-Apr-19 10:50 230 18 5.4 4.0 Showers in the vicinity.
2014-Apr-19 10:20 250 25 gusting 40 2.7 4.0 Rain showers.
2014-Apr-19 09:50 250 27 gusting 42 0.8 5.0 Heavy rain showers.
2014-Apr-19 09:20 230 33 gusting 49 5.4 6.0 Light rain showers.
2014-Apr-19 08:50 230 33 gusting 52 5.4 6.0 Rain showers.
2014-Apr-19 08:20 240 27 gusting 39 5.4 6.0 Light rain showers.
2014-Apr-19 07:50 230 27 gusting 41 5.4 6.0 Showers in the vicinity.
2014-Apr-19 07:20 230 23 gusting 40 5.4 5.0 Showers in the vicinity.
2014-Apr-19 06:50 230 24 gusting 34 5.4 6.0 Light rain showers.
2014-Apr-19 06:20 240 25 gusting 43 5.4 5.0 Light rain showers.
2014-Apr-19 05:50 240 23 gusting 36 2.2 5.0 Rain showers.
2014-Apr-19 05:20 230 31 gusting 51 5.4 5.0 Light rain showers.
2014-Apr-19 04:50 230 26 gusting 37 5.4 6.0 Light rain showers.
2014-Apr-19 04:20 240 26 gusting 40 5.4 6.0
2014-Apr-19 03:50 240 27 gusting 39 5.4 7.0 Showers in the vicinity.
2014-Apr-19 03:20 240 27 gusting 40 5.4 7.0 Showers in the vicinity.
2014-Apr-19 02:50 240 27 gusting 51 5.4 6.0 Showers in the vicinity.
2014-Apr-19 01:50 240 31 gusting 58 5.4 6.0 Light rain.
2014-Apr-19 00:50 230 33 gusting 48 5.4 7.0
2014-Apr-18 23:50 230 27 gusting 46 4.3 6.0 Light rain.
2014-Apr-18 22:50 220 27 gusting 38 2.2 6.0 Rain.
2014-Apr-18 21:50 210 27 gusting 39 5.4 5.0 Light rain.
2014-Apr-18 20:50 220 23 5.4 5.0 Light rain.
2014-Apr-18 19:50 200 23 5.4 4.0 Light rain.
2014-Apr-18 18:50 190 20 5.4 3.0 Light rain.
2014-Apr-18 17:50 190 23 5.4 3.0 Light snow showers.
2014-Apr-18 17:20 200 19 5.4 3.0 Light snow showers.
2014-Apr-18 16:50 190 19 5.4 3.0 Light snow showers.
2014-Apr-18 16:20 190 17 5.4 3.0 Showers in the vicinity.
2014-Apr-18 15:50 190 18 5.4 3.0 Showers in the vicinity.
2014-Apr-18 15:20 190 15 5.4 3.0 Showers in the vicinity.
2014-Apr-18 14:50 190 16 5.4 2.0 Light snow showers.
2014-Apr-18 14:20 210 17 5.4 3.0 Showers in the vicinity.
2014-Apr-18 13:50 210 15 5.4 2.0 Showers in the vicinity.
2014-Apr-18 13:20 220 16 5.4 2.0 Light snow showers.
2014-Apr-18 12:50 220 15 5.4 2.0 Showers in the vicinity.
2014-Apr-18 12:20 220 14 5.4 1.0 Showers in the vicinity.
2014-Apr-18 11:50 230 12 1.6 1.0 Light snow showers.
2014-Apr-18 11:20 210 11 5.4 1.0 Light snow showers.
2014-Apr-18 10:50 220 10 0.8 1.0 Snow showers.
2014-Apr-18 10:20 250 12 0.3 1.0 Heavy snow showers.
2014-Apr-18 09:50 210 10 5.4 1.0 Light snow showers.
2014-Apr-18 09:20 240 7 5.4 1.0 Light snow showers.
2014-Apr-18 08:50 230 7 5.4 2.0 Showers in the vicinity.
2014-Apr-18 07:50 280 13 5.4 1.0 Showers in the vicinity.
2014-Apr-18 07:20 270 10 5.4 1.0 Showers in the vicinity.
2014-Apr-18 06:50 290 9 5.4 1.0 Light snow showers.
2014-Apr-18 06:20 290 13 5.4 1.0 Light snow showers.
2014-Apr-18 05:50 300 10 5.4 1.0 Showers in the vicinity.
2014-Apr-18 05:20 320 9 5.4 1.0 Light snow showers.
2014-Apr-18 04:50 330 8 5.4 1.0 Showers in the vicinity.
2014-Apr-18 04:20 320 10 5.4-0.0
2014-Apr-18 03:50 300 23 1.1 1.0 Snow showers.
2014-Apr-18 02:50 310 14 5.4 1.0